Time;durP1;ratioP1;P1;durP2;ratioP2;P2;SDS_P1;SDS_P2;PMS_P1;PMS_P2;Temp;Humidity;BMP_temperature;BMP_pressure;BME280_temperature;BME280_humidity;BME280_pressure;Samples;Min_cycle;Max_cycle;Signal;HPM_P1;HPM_P2
2023/09/12 00:00:57;;;;;;;28.83;22.73;;;20.40;99.90;;;;;;5138113;27;20050;-78
2023/09/12 00:03:23;;;;;;;29.73;21.15;;;20.30;99.90;;;;;;5141746;27;20046;-78
2023/09/12 00:05:54;;;;;;;23.42;19.77;;;20.40;99.90;;;;;;5138533;27;20039;-78
2023/09/12 00:08:19;;;;;;;27.58;22.35;;;20.40;99.90;;;;;;5140896;27;20047;-78
2023/09/12 00:10:46;;;;;;;26.95;23.30;;;20.40;99.90;;;;;;5140131;27;20046;-78
2023/09/12 00:13:11;;;;;;;32.72;24.40;;;20.40;99.90;;;;;;5138964;27;20167;-77
2023/09/12 00:15:37;;;;;;;34.83;26.73;;;20.40;99.90;;;;;;5086655;27;20054;-77
2023/09/12 00:18:04;;;;;;;28.23;22.65;;;20.30;99.90;;;;;;5109633;27;20058;-77
2023/09/12 00:20:29;;;;;;;29.02;23.15;;;20.30;99.90;;;;;;5119350;27;20735;-78
2023/09/12 00:22:56;;;;;;;28.05;23.88;;;20.30;99.90;;;;;;5110242;27;20115;-80
2023/09/12 00:25:21;;;;;;;35.38;25.38;;;20.30;99.90;;;;;;5137593;27;20046;-79
2023/09/12 00:27:47;;;;;;;27.65;22.33;;;20.30;99.90;;;;;;5126351;27;20119;-79
2023/09/12 00:30:16;;;;;;;34.40;26.13;;;20.30;99.90;;;;;;5120442;27;20050;-78
2023/09/12 00:32:42;;;;;;;30.05;24.75;;;20.30;99.90;;;;;;5112537;27;20042;-79
2023/09/12 00:35:07;;;;;;;33.65;26.40;;;20.20;99.90;;;;;;5131643;27;20506;-79
2023/09/12 00:37:33;;;;;;;30.88;25.52;;;20.20;99.90;;;;;;5138728;27;20062;-80
2023/09/12 00:39:59;;;;;;;34.25;26.17;;;20.20;99.90;;;;;;5126684;27;20104;-79
2023/09/12 00:42:28;;;;;;;33.75;27.40;;;20.10;99.90;;;;;;5141567;27;20411;-80
2023/09/12 00:44:53;;;;;;;30.63;25.05;;;20.10;99.90;;;;;;5135224;27;20039;-79
2023/09/12 00:47:21;;;;;;;36.00;26.77;;;20.10;99.90;;;;;;5133433;27;20054;-80
2023/09/12 00:49:50;;;;;;;33.53;25.77;;;20.10;99.90;;;;;;5139115;27;20125;-78
2023/09/12 00:52:17;;;;;;;28.92;22.10;;;20.10;99.90;;;;;;5129893;27;20058;-79
2023/09/12 00:54:42;;;;;;;31.98;25.52;;;20.10;99.90;;;;;;5121038;27;20142;-79
2023/09/12 00:57:08;;;;;;;32.88;26.67;;;20.10;99.90;;;;;;5134102;27;20380;-79
2023/09/12 00:59:34;;;;;;;33.58;26.17;;;20.10;99.90;;;;;;5103065;28;20519;-79
2023/09/12 01:02:00;;;;;;;32.60;25.02;;;20.10;99.90;;;;;;5121510;27;20090;-79
2023/09/12 01:04:27;;;;;;;36.58;26.35;;;20.10;99.90;;;;;;5127642;27;20057;-79
2023/09/12 01:06:52;;;;;;;28.67;22.77;;;20.10;99.90;;;;;;5111035;28;20047;-78
2023/09/12 01:09:18;;;;;;;31.20;24.85;;;20.00;99.90;;;;;;5121924;27;20819;-79
2023/09/12 01:11:44;;;;;;;29.58;22.10;;;20.00;99.90;;;;;;5133890;27;20051;-78
2023/09/12 01:14:10;;;;;;;33.15;25.05;;;19.90;99.90;;;;;;5135037;27;20082;-80
2023/09/12 01:16:36;;;;;;;28.85;21.90;;;19.90;99.90;;;;;;5135787;27;20047;-78
2023/09/12 01:19:03;;;;;;;28.92;22.05;;;19.90;99.90;;;;;;5128083;27;20055;-79
2023/09/12 01:22:16;;;;;;;30.98;24.42;;;19.80;99.90;;;;;;5126107;27;20051;-77
2023/09/12 01:25:02;;;;;;;29.80;22.33;;;19.80;99.90;;;;;;5092406;28;20178;-79
2023/09/12 01:27:32;;;;;;;29.92;22.52;;;19.90;99.90;;;;;;5122803;27;20320;-79
2023/09/12 01:30:03;;;;;;;31.45;24.33;;;19.90;99.90;;;;;;5109201;27;20072;-79
2023/09/12 01:32:31;;;;;;;27.73;22.50;;;19.80;99.90;;;;;;5132516;27;20122;-79
2023/09/12 01:34:56;;;;;;;32.75;24.02;;;19.80;99.90;;;;;;5106820;27;20089;-79
2023/09/12 01:37:22;;;;;;;33.15;24.08;;;19.80;99.90;;;;;;5130953;27;20133;-79
2023/09/12 01:39:48;;;;;;;27.88;22.50;;;19.80;99.90;;;;;;5123869;27;20054;-79
2023/09/12 01:42:17;;;;;;;31.17;23.40;;;19.70;99.90;;;;;;5105295;27;20051;-78
2023/09/12 01:44:44;;;;;;;30.35;23.17;;;19.70;99.90;;;;;;5141563;27;20483;-78
2023/09/12 01:47:12;;;;;;;31.40;23.83;;;19.70;99.90;;;;;;5145334;27;20107;-79
2023/09/12 01:49:41;;;;;;;39.00;28.13;;;19.70;99.90;;;;;;5138558;27;20045;-78
2023/09/12 01:52:07;;;;;;;34.50;26.63;;;19.70;99.90;;;;;;5124456;27;20122;-79
2023/09/12 01:54:34;;;;;;;31.52;25.30;;;19.60;99.90;;;;;;5124536;27;20078;-78
2023/09/12 01:57:01;;;;;;;33.17;22.80;;;19.60;99.90;;;;;;5125837;27;20043;-79
2023/09/12 01:59:28;;;;;;;25.95;20.80;;;19.60;99.90;;;;;;5143045;27;20122;-78
2023/09/12 02:01:54;;;;;;;33.38;26.58;;;19.60;99.90;;;;;;5144947;27;20494;-78
2023/09/12 02:04:20;;;;;;;33.70;25.88;;;19.60;99.90;;;;;;5138842;27;20047;-78
2023/09/12 02:06:46;;;;;;;30.65;24.13;;;19.60;99.90;;;;;;5119835;27;20045;-78
2023/09/12 02:09:12;;;;;;;31.75;24.95;;;19.50;99.90;;;;;;5137312;27;20050;-79
2023/09/12 02:11:37;;;;;;;31.60;23.77;;;19.50;99.90;;;;;;5121797;27;20483;-77
2023/09/12 02:14:03;;;;;;;33.75;27.35;;;19.40;99.90;;;;;;5136339;27;20054;-78
2023/09/12 02:16:31;;;;;;;32.13;25.70;;;19.40;99.90;;;;;;5136727;27;20125;-78
2023/09/12 02:18:56;;;;;;;34.42;27.63;;;19.40;99.90;;;;;;5137197;27;20066;-77
2023/09/12 02:21:22;;;;;;;36.47;25.92;;;19.40;99.90;;;;;;5125901;27;20123;-78
2023/09/12 02:23:48;;;;;;;28.58;23.27;;;19.40;99.90;;;;;;5129369;27;20420;-77
2023/09/12 02:26:13;;;;;;;30.55;25.80;;;19.40;99.90;;;;;;5144582;27;20073;-78
2023/09/12 02:28:39;;;;;;;35.00;27.67;;;19.50;99.90;;;;;;5141680;27;20494;-77
2023/09/12 02:31:11;;;;;;;34.40;27.25;;;19.40;99.90;;;;;;5144960;27;20501;-79
2023/09/12 02:33:38;;;;;;;36.50;28.17;;;19.40;99.90;;;;;;5140558;27;20038;-78
2023/09/12 02:36:04;;;;;;;33.05;24.77;;;19.60;99.90;;;;;;5124231;27;20633;-78
2023/09/12 02:38:30;;;;;;;28.02;20.88;;;19.40;99.90;;;;;;5135659;27;20055;-77
2023/09/12 02:40:55;;;;;;;32.85;23.45;;;19.40;99.90;;;;;;5130900;27;20059;-78
2023/09/12 02:43:21;;;;;;;25.55;20.85;;;19.40;99.90;;;;;;5131257;27;20599;-78
2023/09/12 02:45:47;;;;;;;35.03;26.48;;;19.30;99.90;;;;;;5142529;27;20053;-78
2023/09/12 02:48:13;;;;;;;32.40;25.45;;;19.30;99.90;;;;;;5130310;27;20047;-77
2023/09/12 02:50:39;;;;;;;32.25;25.52;;;19.30;99.90;;;;;;5120376;27;20051;-78
2023/09/12 02:53:04;;;;;;;37.10;28.60;;;19.30;99.90;;;;;;5137177;27;20570;-78
2023/09/12 02:55:30;;;;;;;33.85;25.98;;;19.30;99.90;;;;;;5124223;27;20514;-77
2023/09/12 02:57:56;;;;;;;31.55;24.63;;;19.40;99.90;;;;;;5126963;27;20191;-77
2023/09/12 03:00:22;;;;;;;31.10;22.73;;;19.40;99.90;;;;;;5111268;27;20050;-79
2023/09/12 03:02:47;;;;;;;31.45;22.90;;;19.10;99.90;;;;;;5124538;27;20054;-78
2023/09/12 03:05:13;;;;;;;38.47;28.55;;;19.40;99.90;;;;;;5137295;27;20826;-78
2023/09/12 03:07:39;;;;;;;32.80;25.70;;;19.40;99.90;;;;;;5120719;27;20043;-79
2023/09/12 03:10:05;;;;;;;36.40;27.38;;;19.40;99.90;;;;;;5115469;27;20050;-79
2023/09/12 03:12:31;;;;;;;35.47;27.08;;;19.40;99.90;;;;;;5134671;27;20103;-78
2023/09/12 03:14:57;;;;;;;39.08;28.65;;;19.40;99.90;;;;;;5131514;27;20043;-79
2023/09/12 03:17:22;;;;;;;26.08;18.92;;;19.30;99.90;;;;;;5140861;27;20118;-78
2023/09/12 03:19:48;;;;;;;34.90;25.73;;;19.30;99.90;;;;;;5139594;27;20827;-79
2023/09/12 03:22:14;;;;;;;33.78;23.73;;;19.20;99.90;;;;;;5138019;27;20535;-78
2023/09/12 03:24:39;;;;;;;29.83;23.77;;;19.20;99.90;;;;;;5139252;27;20087;-78
2023/09/12 03:27:05;;;;;;;36.28;26.92;;;19.20;99.90;;;;;;5117250;27;20043;-78
2023/09/12 03:29:31;;;;;;;32.85;23.70;;;19.20;99.90;;;;;;5121030;27;20126;-78
2023/09/12 03:31:56;;;;;;;35.53;27.85;;;19.10;99.90;;;;;;5127320;27;20078;-78
2023/09/12 03:34:22;;;;;;;30.85;22.98;;;19.10;99.90;;;;;;5137734;27;20134;-78
2023/09/12 03:36:48;;;;;;;28.85;22.23;;;19.10;99.90;;;;;;5138939;27;20054;-78
2023/09/12 03:39:14;;;;;;;29.10;21.77;;;19.00;99.90;;;;;;5142445;27;20095;-78
2023/09/12 03:41:40;;;;;;;32.60;23.10;;;19.00;99.90;;;;;;5121098;27;20082;-78
2023/09/12 03:44:08;;;;;;;31.25;23.45;;;19.00;99.90;;;;;;5122932;27;20158;-78
2023/09/12 03:46:33;;;;;;;27.27;21.00;;;19.00;99.90;;;;;;5139838;27;20065;-77
2023/09/12 03:48:59;;;;;;;29.73;22.92;;;18.90;99.90;;;;;;5140861;27;20054;-78
2023/09/12 03:51:25;;;;;;;30.52;23.98;;;18.90;99.90;;;;;;5138528;27;20082;-78
2023/09/12 03:53:51;;;;;;;34.92;26.05;;;18.90;99.90;;;;;;5140801;27;20490;-78
2023/09/12 03:56:19;;;;;;;28.80;24.02;;;18.90;99.90;;;;;;5120590;27;20043;-78
2023/09/12 03:58:45;;;;;;;30.83;23.50;;;18.80;99.90;;;;;;5140804;27;20487;-78
2023/09/12 04:01:11;;;;;;;31.70;23.90;;;18.90;99.90;;;;;;5141145;27;20077;-78
2023/09/12 04:03:37;;;;;;;34.08;25.58;;;18.80;99.90;;;;;;5141166;27;20390;-78
2023/09/12 04:06:02;;;;;;;36.85;27.40;;;18.70;99.90;;;;;;5135723;27;20491;-78
2023/09/12 04:08:28;;;;;;;32.50;24.00;;;18.70;99.90;;;;;;5141191;27;20050;-78
2023/09/12 04:10:54;;;;;;;31.38;25.23;;;18.70;99.90;;;;;;5141662;27;20070;-78
2023/09/12 04:13:19;;;;;;;30.08;24.27;;;18.70;99.90;;;;;;5140698;27;20038;-78
2023/09/12 04:15:45;;;;;;;35.28;24.25;;;18.70;99.90;;;;;;5129636;27;20777;-78
2023/09/12 04:18:11;;;;;;;28.00;22.60;;;18.60;99.90;;;;;;5134650;27;20062;-78
2023/09/12 04:20:37;;;;;;;39.08;24.23;;;18.60;99.90;;;;;;5123157;27;20163;-78
2023/09/12 04:23:03;;;;;;;40.03;25.90;;;18.60;99.90;;;;;;5111827;27;20053;-78
2023/09/12 04:25:30;;;;;;;37.22;24.55;;;18.70;99.90;;;;;;5135266;27;20170;-78
2023/09/12 04:27:55;;;;;;;39.22;24.17;;;18.60;99.90;;;;;;5115238;27;20685;-78
2023/09/12 04:30:21;;;;;;;120.93;32.60;;;18.60;99.90;;;;;;5132184;27;20047;-78
2023/09/12 04:32:47;;;;;;;63.80;28.15;;;18.70;99.90;;;;;;5128868;27;20061;-78
2023/09/12 04:35:13;;;;;;;35.53;24.67;;;18.60;99.90;;;;;;5139687;27;20062;-78
2023/09/12 04:37:39;;;;;;;54.08;25.05;;;18.60;99.90;;;;;;5121662;27;20057;-78
2023/09/12 04:40:06;;;;;;;94.78;31.25;;;18.60;99.90;;;;;;5123999;27;20815;-78
2023/09/12 04:42:32;;;;;;;58.15;26.02;;;18.60;99.90;;;;;;5129590;27;20049;-78
2023/09/12 04:44:58;;;;;;;61.67;26.75;;;18.60;99.90;;;;;;5139171;27;20050;-78
2023/09/12 04:47:24;;;;;;;69.47;25.65;;;18.60;99.90;;;;;;5133570;27;20047;-78
2023/09/12 04:49:49;;;;;;;43.15;21.10;;;18.50;99.90;;;;;;5125247;27;20477;-79
2023/09/12 04:52:15;;;;;;;34.88;18.80;;;18.50;99.90;;;;;;5107922;28;20051;-78
2023/09/12 04:54:41;;;;;;;24.27;18.55;;;18.40;99.90;;;;;;5136469;27;20044;-78
2023/09/12 04:57:07;;;;;;;31.60;19.75;;;18.40;99.90;;;;;;5139064;27;20128;-78
2023/09/12 04:59:33;;;;;;;24.08;17.85;;;18.40;99.90;;;;;;5126806;27;20047;-78
2023/09/12 05:01:59;;;;;;;22.50;17.35;;;18.40;99.90;;;;;;5123014;27;20522;-78
2023/09/12 05:04:24;;;;;;;25.15;20.88;;;18.30;99.90;;;;;;5117971;27;20046;-78
2023/09/12 05:06:50;;;;;;;31.90;20.50;;;18.30;99.90;;;;;;5139311;27;20051;-78
2023/09/12 05:09:16;;;;;;;49.63;22.35;;;18.30;99.90;;;;;;5138522;27;20043;-78
2023/09/12 05:11:42;;;;;;;131.20;29.65;;;18.30;99.90;;;;;;5139684;27;20058;-77
2023/09/12 05:14:08;;;;;;;68.05;26.45;;;18.30;99.90;;;;;;5103259;27;20050;-78
2023/09/12 05:16:33;;;;;;;61.72;23.05;;;18.30;99.90;;;;;;5131338;27;20046;-78
2023/09/12 05:18:59;;;;;;;29.88;23.08;;;18.40;99.90;;;;;;5132318;27;20061;-77
2023/09/12 05:21:25;;;;;;;31.10;21.02;;;18.40;99.90;;;;;;5142467;27;20042;-77
2023/09/12 05:23:50;;;;;;;44.60;25.27;;;18.40;99.90;;;;;;5142879;27;20066;-77
2023/09/12 05:26:16;;;;;;;59.85;25.55;;;18.50;99.90;;;;;;5145104;27;20477;-77
2023/09/12 05:28:42;;;;;;;53.00;26.88;;;18.50;99.90;;;;;;5143075;27;20097;-78
2023/09/12 05:31:08;;;;;;;101.25;26.23;;;18.60;99.90;;;;;;5143170;27;20094;-77
2023/09/12 05:33:34;;;;;;;36.30;22.70;;;18.60;99.90;;;;;;5143802;27;20145;-78
2023/09/12 05:36:00;;;;;;;40.25;24.13;;;18.60;99.90;;;;;;5143319;27;20049;-77
2023/09/12 05:38:26;;;;;;;27.80;19.83;;;18.60;99.90;;;;;;5142479;27;20051;-77
2023/09/12 05:40:52;;;;;;;27.15;21.20;;;18.70;99.90;;;;;;5143130;27;20066;-78
2023/09/12 05:43:17;;;;;;;37.95;22.10;;;18.70;99.90;;;;;;5119698;27;20043;-78
2023/09/12 05:45:43;;;;;;;65.43;30.10;;;18.70;99.90;;;;;;5129449;27;20118;-78
2023/09/12 05:48:09;;;;;;;37.63;22.40;;;18.70;99.90;;;;;;5139733;27;20042;-79
2023/09/12 05:50:38;;;;;;;50.72;27.02;;;18.80;99.90;;;;;;5141078;27;20101;-77
2023/09/12 05:53:04;;;;;;;47.15;27.08;;;18.80;99.90;;;;;;5139987;27;20042;-78
2023/09/12 05:55:29;;;;;;;35.85;24.20;;;18.80;99.90;;;;;;5124050;27;20207;-78
2023/09/12 05:57:55;;;;;;;46.67;28.05;;;18.80;99.90;;;;;;5136395;27;20529;-78
2023/09/12 06:00:21;;;;;;;36.35;25.05;;;18.80;99.90;;;;;;5136293;27;20439;-79
2023/09/12 06:02:47;;;;;;;44.28;27.70;;;18.90;99.90;;;;;;5139987;27;20591;-78
2023/09/12 06:05:17;;;;;;;40.22;29.05;;;18.90;99.90;;;;;;5140715;27;20553;-78
2023/09/12 06:07:42;;;;;;;47.00;33.75;;;18.90;99.90;;;;;;5120616;27;20050;-78
2023/09/12 06:10:09;;;;;;;53.28;35.35;;;19.00;99.90;;;;;;5141575;27;20650;-79
2023/09/12 06:12:36;;;;;;;64.00;34.97;;;19.00;99.90;;;;;;5135099;27;20043;-78
2023/09/12 06:15:03;;;;;;;38.15;25.88;;;19.00;99.90;;;;;;5140024;27;20130;-77
2023/09/12 06:17:30;;;;;;;58.70;35.00;;;19.10;99.90;;;;;;5140633;27;20118;-78
2023/09/12 06:19:55;;;;;;;70.68;34.17;;;19.20;99.90;;;;;;5140960;27;20151;-78
2023/09/12 06:22:22;;;;;;;99.50;38.55;;;19.30;99.90;;;;;;5121767;27;20656;-78
2023/09/12 06:24:51;;;;;;;43.03;30.85;;;19.30;99.90;;;;;;5140908;27;20084;-78
2023/09/12 06:27:18;;;;;;;40.05;28.38;;;19.20;99.90;;;;;;5121351;27;20902;-78
2023/09/12 06:29:48;;;;;;;43.72;28.13;;;19.30;99.90;;;;;;5122967;27;20051;-78
2023/09/12 06:32:15;;;;;;;48.17;30.60;;;19.30;99.90;;;;;;5123515;27;20066;-79
2023/09/12 06:34:41;;;;;;;45.97;29.77;;;19.30;99.90;;;;;;5113155;27;20051;-78
2023/09/12 06:37:07;;;;;;;43.40;25.30;;;19.40;99.90;;;;;;5142132;27;20047;-77
2023/09/12 06:39:33;;;;;;;43.05;29.23;;;19.40;99.90;;;;;;5122412;27;20062;-78
2023/09/12 06:41:59;;;;;;;63.00;34.53;;;19.50;99.90;;;;;;5137121;27;20782;-78
2023/09/12 06:44:25;;;;;;;38.25;26.30;;;19.50;99.90;;;;;;5138490;27;20042;-78
2023/09/12 06:46:50;;;;;;;54.75;32.03;;;19.50;99.90;;;;;;5118628;27;20592;-78
2023/09/12 06:49:16;;;;;;;49.42;30.38;;;19.50;99.90;;;;;;5134512;27;20118;-78
2023/09/12 06:51:42;;;;;;;41.85;28.95;;;19.50;99.90;;;;;;5123348;27;20161;-78
2023/09/12 06:54:07;;;;;;;48.22;33.72;;;19.50;99.90;;;;;;5120977;27;20050;-77
2023/09/12 06:56:37;;;;;;;60.67;38.97;;;19.60;99.90;;;;;;5117451;27;20287;-78
2023/09/12 06:59:04;;;;;;;43.97;28.80;;;19.70;99.90;;;;;;5134018;27;20935;-78
2023/09/12 07:01:30;;;;;;;40.80;29.05;;;19.70;99.90;;;;;;5130272;27;20074;-78
2023/09/12 07:03:56;;;;;;;54.70;31.50;;;19.60;99.90;;;;;;5117530;27;20050;-78
2023/09/12 07:06:22;;;;;;;67.10;32.45;;;19.70;99.90;;;;;;5139910;27;20574;-78
2023/09/12 07:08:48;;;;;;;42.30;28.83;;;19.80;99.90;;;;;;5119458;27;20047;-78
2023/09/12 07:11:14;;;;;;;45.03;29.65;;;19.90;99.90;;;;;;5129487;27;20069;-78
2023/09/12 07:13:40;;;;;;;49.13;28.52;;;19.90;99.90;;;;;;5135240;27;20047;-78
2023/09/12 07:16:05;;;;;;;45.45;30.00;;;19.90;99.90;;;;;;5130232;27;20163;-78
2023/09/12 07:18:34;;;;;;;49.40;31.45;;;19.90;99.90;;;;;;5131314;27;20046;-78
2023/09/12 07:21:03;;;;;;;47.65;31.15;;;19.80;99.90;;;;;;5131998;27;20620;-78
2023/09/12 07:23:29;;;;;;;46.92;30.55;;;19.70;99.90;;;;;;5094837;27;20388;-79
2023/09/12 07:25:57;;;;;;;40.38;28.98;;;19.80;99.90;;;;;;5132858;27;20879;-78
2023/09/12 07:28:27;;;;;;;33.47;26.02;;;20.00;99.90;;;;;;5137309;27;20111;-78
2023/09/12 07:30:54;;;;;;;47.35;27.98;;;19.80;99.90;;;;;;5121633;27;20055;-78
2023/09/12 07:33:20;;;;;;;31.42;23.38;;;19.70;99.90;;;;;;5137348;27;20110;-78
2023/09/12 07:35:49;;;;;;;39.50;27.45;;;19.60;99.90;;;;;;5136542;27;20526;-77
2023/09/12 07:38:17;;;;;;;38.88;29.35;;;19.60;99.90;;;;;;5137619;27;20534;-78
2023/09/12 07:40:43;;;;;;;35.40;26.95;;;19.60;99.90;;;;;;5137387;27;20090;-78
2023/09/12 07:43:10;;;;;;;33.17;25.95;;;19.70;99.90;;;;;;5123038;27;20570;-78
2023/09/12 07:45:37;;;;;;;35.22;26.70;;;19.70;99.90;;;;;;5141517;27;20046;-78
2023/09/12 07:48:08;;;;;;;38.72;26.50;;;19.70;99.90;;;;;;5132033;27;20051;-78
2023/09/12 07:50:34;;;;;;;39.25;27.27;;;19.70;99.90;;;;;;5141648;27;20137;-78
2023/09/12 07:53:00;;;;;;;35.05;27.17;;;19.80;99.90;;;;;;5126563;27;20850;-77
2023/09/12 07:55:30;;;;;;;39.97;27.35;;;19.80;99.90;;;;;;5128077;27;20043;-78
2023/09/12 07:57:55;;;;;;;38.25;28.25;;;20.00;99.90;;;;;;5136278;27;20089;-77
2023/09/12 08:00:21;;;;;;;37.85;26.60;;;20.00;99.90;;;;;;5115888;27;20853;-77
2023/09/12 08:02:47;;;;;;;34.65;24.98;;;20.10;99.90;;;;;;5141026;27;20038;-79
2023/09/12 08:05:13;;;;;;;38.58;27.40;;;20.10;99.90;;;;;;5133972;27;20058;-78
2023/09/12 08:07:38;;;;;;;37.10;27.02;;;20.20;99.90;;;;;;5139635;27;20129;-78
2023/09/12 08:10:04;;;;;;;36.72;26.73;;;20.20;99.90;;;;;;5141138;27;20054;-77
2023/09/12 08:12:30;;;;;;;42.47;30.02;;;20.30;99.90;;;;;;5143048;27;20046;-78
2023/09/12 08:14:56;;;;;;;37.75;27.30;;;20.30;99.90;;;;;;5136648;27;20500;-77
2023/09/12 08:17:23;;;;;;;38.85;27.92;;;20.40;99.90;;;;;;5119852;27;20101;-77
2023/09/12 08:19:48;;;;;;;42.13;29.15;;;20.50;99.90;;;;;;5140613;27;20046;-79
2023/09/12 08:22:14;;;;;;;37.35;27.75;;;20.50;99.90;;;;;;5118877;27;20045;-81
2023/09/12 08:24:40;;;;;;;42.50;29.60;;;20.60;99.90;;;;;;5131886;27;20058;-77
2023/09/12 08:27:07;;;;;;;35.40;23.60;;;20.60;99.90;;;;;;5121499;27;20784;-77
2023/09/12 08:29:33;;;;;;;35.83;27.15;;;20.60;99.90;;;;;;5140882;27;20046;-78
2023/09/12 08:32:00;;;;;;;38.83;29.10;;;20.60;99.90;;;;;;5139129;27;20058;-78
2023/09/12 08:34:26;;;;;;;39.47;28.20;;;20.60;99.90;;;;;;5139685;27;20039;-77
2023/09/12 08:36:52;;;;;;;39.50;27.77;;;20.60;99.90;;;;;;5137871;27;20054;-78
2023/09/12 08:39:24;;;;;;;36.92;28.63;;;20.60;99.90;;;;;;5122125;27;20043;-80
2023/09/12 08:41:51;;;;;;;36.83;26.38;;;20.60;99.90;;;;;;5110221;27;20825;-78
2023/09/12 08:44:18;;;;;;;30.17;21.95;;;20.60;99.90;;;;;;5125777;27;20111;-78
2023/09/12 08:46:44;;;;;;;40.08;27.80;;;20.60;99.90;;;;;;5118718;27;20119;-79
2023/09/12 08:49:11;;;;;;;40.85;28.75;;;20.60;99.90;;;;;;5130075;27;20079;-78
2023/09/12 08:51:39;;;;;;;40.97;28.85;;;20.70;99.90;;;;;;5145719;27;20789;-78
2023/09/12 08:54:05;;;;;;;41.78;29.40;;;20.70;99.90;;;;;;5143153;27;20043;-78
2023/09/12 08:56:32;;;;;;;39.30;27.95;;;20.70;99.90;;;;;;5146293;27;20042;-78
2023/09/12 08:59:00;;;;;;;39.47;27.85;;;20.70;99.90;;;;;;5119516;27;20051;-76
2023/09/12 09:01:28;;;;;;;43.88;30.73;;;20.80;99.90;;;;;;5126845;27;20050;-78
2023/09/12 09:03:55;;;;;;;43.10;27.65;;;20.90;99.90;;;;;;5135331;27;20046;-77
2023/09/12 09:06:22;;;;;;;40.30;28.85;;;20.90;99.90;;;;;;5105844;27;20095;-77
2023/09/12 09:08:52;;;;;;;41.30;29.80;;;21.00;99.90;;;;;;5105452;27;20488;-78
2023/09/12 09:11:18;;;;;;;40.17;28.48;;;21.10;99.90;;;;;;5108431;27;20043;-78
2023/09/12 09:13:43;;;;;;;39.50;28.90;;;21.20;99.90;;;;;;5103395;27;20039;-82
2023/09/12 09:16:14;;;;;;;39.38;28.33;;;21.40;99.90;;;;;;5125381;27;20688;-81
2023/09/12 09:18:58;;;;;;;42.65;28.25;;;21.70;99.90;;;;;;5125492;27;20074;-80
2023/09/12 09:21:25;;;;;;;41.38;27.77;;;21.90;99.90;;;;;;5105421;27;20051;-77
2023/09/12 09:23:53;;;;;;;41.10;28.92;;;22.00;99.90;;;;;;5126731;27;20046;-80
2023/09/12 09:26:19;;;;;;;34.20;24.48;;;22.20;99.90;;;;;;5139962;27;20059;-78
2023/09/12 09:28:45;;;;;;;42.28;27.67;;;22.70;99.90;;;;;;5114141;27;20047;-80
2023/09/12 09:31:14;;;;;;;36.30;24.85;;;23.00;99.90;;;;;;5141063;27;20054;-80
2023/09/12 09:33:40;;;;;;;38.47;26.55;;;23.00;99.90;;;;;;5120998;27;20070;-78
2023/09/12 09:36:07;;;;;;;34.60;23.67;;;23.00;99.90;;;;;;5106306;27;20055;-79
2023/09/12 09:38:36;;;;;;;39.38;27.13;;;22.90;99.90;;;;;;5118999;27;20046;-78
2023/09/12 09:41:09;;;;;;;38.25;24.48;;;22.80;99.90;;;;;;5110770;27;20070;-77
2023/09/12 09:43:35;;;;;;;;;;;22.90;99.90;;;;;;5130752;27;20103;-76
2023/09/12 09:46:02;;;;;;;35.60;25.25;;;22.80;99.90;;;;;;5137160;27;19931;-77
2023/09/12 09:48:31;;;;;;;31.42;22.90;;;22.90;99.90;;;;;;5127344;27;20051;-76
2023/09/12 09:51:03;;;;;;;36.92;25.55;;;22.90;99.90;;;;;;5126535;27;20047;-77
2023/09/12 09:53:32;;;;;;;41.05;27.52;;;22.90;99.90;;;;;;5139483;27;20107;-76
2023/09/12 09:56:11;;;;;;;40.25;26.95;;;22.90;99.90;;;;;;5136473;27;20119;-78
2023/09/12 09:58:45;;;;;;;37.17;27.00;;;22.90;99.90;;;;;;5106657;27;20123;-76
2023/09/12 10:01:13;;;;;;;35.60;25.70;;;22.90;99.90;;;;;;5120334;27;20054;-78
2023/09/12 10:03:41;;;;;;;26.90;20.33;;;23.10;99.90;;;;;;5137165;27;20050;-78
2023/09/12 10:06:08;;;;;;;39.30;27.40;;;23.50;99.90;;;;;;5103391;27;20050;-77
2023/09/12 10:08:35;;;;;;;31.23;23.73;;;23.60;99.90;;;;;;5119309;27;20414;-78
2023/09/12 10:11:01;;;;;;;33.63;25.20;;;23.60;99.90;;;;;;5143396;27;20468;-77
2023/09/12 10:13:32;;;;;;;36.65;25.70;;;23.50;99.90;;;;;;5114488;27;20476;-76
2023/09/12 10:16:00;;;;;;;35.50;25.85;;;23.50;99.90;;;;;;5124582;27;20047;-78
2023/09/12 10:18:28;;;;;;;33.65;23.02;;;23.30;99.90;;;;;;5140230;27;20085;-78
2023/09/12 10:21:07;;;;;;;33.38;24.75;;;23.20;99.90;;;;;;5140022;27;20859;-78
2023/09/12 10:23:44;;;;;;;30.60;24.25;;;23.20;99.90;;;;;;5136229;27;20796;-78
2023/09/12 10:26:13;;;;;;;35.42;26.40;;;23.20;99.90;;;;;;5139557;27;20050;-82
2023/09/12 10:28:42;;;;;;;32.88;24.27;;;23.30;99.90;;;;;;5137844;27;20039;-85
2023/09/12 10:31:12;;;;;;;33.55;24.15;;;23.30;99.90;;;;;;5121608;27;20057;-83
2023/09/12 10:33:39;;;;;;;33.47;23.58;;;23.40;99.90;;;;;;5120955;27;20055;-83
2023/09/12 10:36:06;;;;;;;33.90;24.42;;;23.60;99.90;;;;;;5134988;27;20062;-84
2023/09/12 10:38:40;;;;;;;35.03;23.67;;;23.80;99.90;;;;;;5135224;27;20057;-84
2023/09/12 10:41:09;;;;;;;36.67;24.80;;;24.10;99.90;;;;;;5121088;27;20125;-84
2023/09/12 10:43:36;;;;;;;33.92;22.83;;;24.30;99.90;;;;;;5141962;27;20479;-84
2023/09/12 10:46:03;;;;;;;31.25;22.20;;;24.40;99.90;;;;;;5122395;27;20077;-83
2023/09/12 10:48:30;;;;;;;32.90;22.35;;;24.40;99.90;;;;;;5122541;27;20118;-84
2023/09/12 10:51:00;;;;;;;32.13;24.38;;;24.50;99.90;;;;;;5140108;27;20081;-84
2023/09/12 10:53:29;;;;;;;30.60;21.95;;;24.40;99.90;;;;;;5103227;27;20498;-82
2023/09/12 10:56:19;;;;;;;31.92;22.65;;;24.40;99.90;;;;;;5122801;27;20062;-84
2023/09/12 10:59:06;;;;;;;27.58;22.08;;;24.50;99.90;;;;;;5141008;27;20038;-84
2023/09/12 11:01:33;;;;;;;35.50;25.23;;;24.40;99.90;;;;;;5138454;27;20769;-79
2023/09/12 11:04:19;;;;;;;31.65;20.52;;;24.40;99.90;;;;;;5138174;27;20051;-78
2023/09/12 11:06:45;;;;;;;31.25;22.67;;;24.60;99.90;;;;;;5117259;27;20043;-79
2023/09/12 11:09:14;;;;;;;31.63;22.23;;;24.70;99.90;;;;;;5134616;27;20070;-77
2023/09/12 11:11:54;;;;;;;28.25;21.27;;;24.70;99.90;;;;;;5131028;27;20056;-76
2023/09/12 11:14:20;;;;;;;28.30;21.10;;;24.70;99.90;;;;;;5105855;27;20143;-78
2023/09/12 11:17:06;;;;;;;30.60;22.60;;;24.70;99.90;;;;;;5138666;27;20125;-78
2023/09/12 11:19:42;;;;;;;34.33;22.85;;;24.60;99.90;;;;;;5111958;27;20051;-79
2023/09/12 11:22:25;;;;;;;33.00;22.35;;;24.40;99.90;;;;;;5110196;27;20102;-78
2023/09/12 11:24:51;;;;;;;30.27;22.20;;;24.30;99.90;;;;;;5128387;27;20042;-80
2023/09/12 11:27:17;;;;;;;30.67;22.13;;;24.40;99.90;;;;;;5140117;27;20118;-78
2023/09/12 11:29:43;;;;;;;31.00;22.50;;;24.50;99.90;;;;;;5139226;27;20816;-79
2023/09/12 11:32:09;;;;;;;29.67;21.77;;;24.70;99.90;;;;;;5118592;27;20070;-78
2023/09/12 11:34:42;;;;;;;29.73;20.70;;;24.90;99.90;;;;;;5139841;27;20046;-79
2023/09/12 11:37:09;;;;;;;28.10;21.55;;;25.20;99.90;;;;;;5138535;27;20043;-78
2023/09/12 11:39:39;;;;;;;24.85;20.30;;;25.50;99.90;;;;;;5138539;27;20055;-78
2023/09/12 11:42:10;;;;;;;24.20;17.90;;;25.70;99.90;;;;;;5137701;27;20161;-78
2023/09/12 11:44:36;;;;;;;31.00;20.65;;;25.90;99.90;;;;;;5118322;27;20453;-78
2023/09/12 11:47:09;;;;;;;24.65;18.55;;;26.00;99.90;;;;;;5112990;27;20043;-79
2023/09/12 11:49:41;;;;;;;;;;;26.00;99.90;;;;;;5130952;27;20654;-78
2023/09/12 11:52:12;;;;;;;24.50;17.67;;;26.10;99.90;;;;;;5136920;27;20230;-78
2023/09/12 11:54:42;;;;;;;24.50;16.67;;;26.10;99.90;;;;;;5115700;27;20047;-79
2023/09/12 11:57:10;;;;;;;24.15;15.65;;;26.10;99.90;;;;;;5117982;27;20828;-79
2023/09/12 11:59:40;;;;;;;24.35;16.65;;;26.20;99.90;;;;;;5138624;27;20046;-78
2023/09/12 12:02:09;;;;;;;19.88;15.35;;;26.30;99.90;;;;;;5134298;27;20052;-78
2023/09/12 12:04:36;;;;;;;23.00;17.85;;;26.30;99.90;;;;;;5137011;27;20038;-78
2023/09/12 12:07:03;;;;;;;22.08;15.63;;;26.40;99.90;;;;;;5119765;27;20082;-78
2023/09/12 12:09:30;;;;;;;23.15;16.10;;;26.50;99.90;;;;;;5129977;27;20062;-78
2023/09/12 12:12:00;;;;;;;22.63;13.85;;;26.50;99.90;;;;;;5090986;27;20086;-78
2023/09/12 12:14:26;;;;;;;19.88;16.08;;;26.50;99.90;;;;;;5105493;27;20047;-78
2023/09/12 12:16:52;;;;;;;20.90;16.83;;;26.60;99.90;;;;;;5121574;27;20415;-80
2023/09/12 12:19:18;;;;;;;18.90;15.98;;;26.60;99.90;;;;;;5139673;27;20051;-78
2023/09/12 12:21:44;;;;;;;20.67;16.08;;;26.50;99.90;;;;;;5133937;27;20489;-77
2023/09/12 12:24:13;;;;;;;24.58;16.80;;;26.30;99.90;;;;;;5109851;27;20142;-78
2023/09/12 12:26:42;;;;;;;21.45;16.00;;;26.10;99.90;;;;;;5139101;27;20130;-79
2023/09/12 12:29:10;;;;;;;18.35;15.85;;;26.10;99.90;;;;;;5134491;27;20047;-78